Clarksville, FL

2:40 AM CST on December 29, 2014 (GMT -0600)
Chipola River @ Land's Landing | Change Station
CLOSE
Current Station
Personal Weather Station
Location: Wewahitchka, FL
Elevation: 23 ft
Nearby Weather Stations

Elev 23 ft 30.10 °N, 85.19 °W | Updated 2 minutes ago

Overcast
Overcast
68.5 °F
Feels Like 68.5 °F
N
2.7
Wind Variable Wind from ESE

Today
High -- | Low -- °F
--% Chance of Precip.
Yesterday
High -- | Low -- °F
Precip. -- in
6:36 AM 4:49 PM
First Quarter, 56% visible
Pressure 30.00 in
Visibility 10.0 miles
Clouds Few 900 ft
Mostly Cloudy 9500 ft
Dew Point 68 °F
Humidity 99%
Rainfall 0.00 in
Snow Depth Not available.
UV 0 out of 12
Pollen 3.00 out of 12
Air Quality Not available.
Flu Activity Not available.
METAR KTDR 290756Z AUTO 18010KT 10SM FEW009 BKN095 21/21 A2999 RMK AO2 SLP159 T02070207

More Conditions Fewer Conditions

Pressure 30.00 in
Visibility 10.0 miles
Clouds Few 900 ft
Mostly Cloudy 9500 ft
Dew Point 68 °F
Humidity 99%
Rainfall 0.00 in
Snow Depth Not available.
UV 0 out of 12
Pollen 3.00 out of 12
Air Quality Not available.
Flu Activity Not available.
METAR KTDR 290756Z AUTO 18010KT 10SM FEW009 BKN095 21/21 A2999 RMK AO2 SLP159 T02070207

More Conditions Fewer Conditions

10-Day Weather Forecast

Almanac

Astronomy

Dec. 29, 2014 Rise Set
Actual Time
Civil Twilight
Nautical Twilight
Astronomical Twilight
Moon
Length of Visible Light
Length of Day
Tomorrow will be .
, % of the Moon is Illuminated

Today's Extremes

State Highs State Lows

Community

WunderPhotos

Upload Photos

1,781,558 photos uploaded!

WunderBlogs® & News

Nearby

Air Quality

  Air Quality AQ Index Pollutant
Not available.

Snow Depth

Station Depth Elevation

Earthquake Activity

City Distance Mag. Time & Date
Minimum magnitude displayed is 2.5.

Coastal Water Temperatures

Place Temperature

Nearby Weather Stations